sensor_id;sensor_type;location;lat;lon;timestamp;P1;durP1;ratioP1;P2;durP2;ratioP2
2055;SDS011;1033;52.560;13.374;2022-09-09T00:00:37;11.27;;;8.80;;
2055;SDS011;1033;52.560;13.374;2022-09-09T00:03:14;10.73;;;8.93;;
2055;SDS011;1033;52.560;13.374;2022-09-09T00:05:51;11.37;;;8.97;;
2055;SDS011;1033;52.560;13.374;2022-09-09T00:08:37;10.03;;;8.30;;
2055;SDS011;1033;52.560;13.374;2022-09-09T00:11:26;9.83;;;8.83;;
2055;SDS011;1033;52.560;13.374;2022-09-09T00:14:03;12.57;;;8.57;;
2055;SDS011;1033;52.560;13.374;2022-09-09T00:16:47;8.40;;;7.50;;
2055;SDS011;1033;52.560;13.374;2022-09-09T00:19:23;10.60;;;7.10;;
2055;SDS011;1033;52.560;13.374;2022-09-09T00:22:04;13.50;;;8.83;;
2055;SDS011;1033;52.560;13.374;2022-09-09T00:24:45;9.80;;;8.30;;
2055;SDS011;1033;52.560;13.374;2022-09-09T00:27:22;9.90;;;8.50;;
2055;SDS011;1033;52.560;13.374;2022-09-09T00:30:00;9.67;;;8.07;;
2055;SDS011;1033;52.560;13.374;2022-09-09T00:32:42;10.77;;;9.10;;
2055;SDS011;1033;52.560;13.374;2022-09-09T00:35:14;8.27;;;7.40;;
2055;SDS011;1033;52.560;13.374;2022-09-09T00:37:50;10.33;;;8.17;;
2055;SDS011;1033;52.560;13.374;2022-09-09T00:40:27;15.30;;;9.00;;
2055;SDS011;1033;52.560;13.374;2022-09-09T00:43:10;8.50;;;7.70;;
2055;SDS011;1033;52.560;13.374;2022-09-09T00:46:05;9.43;;;8.13;;
2055;SDS011;1033;52.560;13.374;2022-09-09T00:49:21;11.83;;;9.77;;
2055;SDS011;1033;52.560;13.374;2022-09-09T00:52:08;8.67;;;7.67;;
2055;SDS011;1033;52.560;13.374;2022-09-09T00:54:52;9.43;;;7.97;;
2055;SDS011;1033;52.560;13.374;2022-09-09T00:57:34;11.63;;;8.87;;
2055;SDS011;1033;52.560;13.374;2022-09-09T01:02:58;10.13;;;8.47;;
2055;SDS011;1033;52.560;13.374;2022-09-09T01:05:53;9.50;;;8.33;;
2055;SDS011;1033;52.560;13.374;2022-09-09T01:08:40;9.57;;;8.30;;
2055;SDS011;1033;52.560;13.374;2022-09-09T01:11:32;10.03;;;8.87;;
2055;SDS011;1033;52.560;13.374;2022-09-09T01:14:20;10.90;;;9.30;;
2055;SDS011;1033;52.560;13.374;2022-09-09T01:17:08;9.80;;;8.80;;
2055;SDS011;1033;52.560;13.374;2022-09-09T01:20:02;10.60;;;8.57;;
2055;SDS011;1033;52.560;13.374;2022-09-09T01:23:04;10.37;;;9.10;;
2055;SDS011;1033;52.560;13.374;2022-09-09T01:26:19;11.70;;;9.17;;
2055;SDS011;1033;52.560;13.374;2022-09-09T01:28:58;10.00;;;8.53;;
2055;SDS011;1033;52.560;13.374;2022-09-09T01:31:32;12.27;;;10.13;;
2055;SDS011;1033;52.560;13.374;2022-09-09T01:34:09;8.30;;;7.47;;
2055;SDS011;1033;52.560;13.374;2022-09-09T01:36:41;9.13;;;7.80;;
2055;SDS011;1033;52.560;13.374;2022-09-09T01:39:17;9.53;;;8.17;;
2055;SDS011;1033;52.560;13.374;2022-09-09T01:41:57;13.87;;;9.67;;
2055;SDS011;1033;52.560;13.374;2022-09-09T01:44:27;8.30;;;7.30;;
2055;SDS011;1033;52.560;13.374;2022-09-09T01:46:59;12.67;;;9.13;;
2055;SDS011;1033;52.560;13.374;2022-09-09T01:49:31;12.13;;;10.13;;
2055;SDS011;1033;52.560;13.374;2022-09-09T01:52:10;10.03;;;8.97;;
2055;SDS011;1033;52.560;13.374;2022-09-09T01:54:39;10.60;;;9.07;;
2055;SDS011;1033;52.560;13.374;2022-09-09T01:57:15;10.70;;;8.33;;
2055;SDS011;1033;52.560;13.374;2022-09-09T01:59:56;10.23;;;8.30;;
2055;SDS011;1033;52.560;13.374;2022-09-09T02:02:43;13.43;;;10.77;;
2055;SDS011;1033;52.560;13.374;2022-09-09T02:05:34;9.77;;;8.20;;
2055;SDS011;1033;52.560;13.374;2022-09-09T02:08:16;14.70;;;8.90;;
2055;SDS011;1033;52.560;13.374;2022-09-09T02:10:58;10.27;;;8.77;;
2055;SDS011;1033;52.560;13.374;2022-09-09T02:13:51;11.40;;;8.40;;
2055;SDS011;1033;52.560;13.374;2022-09-09T02:16:26;10.23;;;9.23;;
2055;SDS011;1033;52.560;13.374;2022-09-09T02:19:06;16.40;;;10.00;;
2055;SDS011;1033;52.560;13.374;2022-09-09T02:21:55;11.80;;;8.87;;
2055;SDS011;1033;52.560;13.374;2022-09-09T02:24:28;13.20;;;10.13;;
2055;SDS011;1033;52.560;13.374;2022-09-09T02:27:21;14.07;;;9.17;;
2055;SDS011;1033;52.560;13.374;2022-09-09T02:29:53;13.47;;;9.20;;
2055;SDS011;1033;52.560;13.374;2022-09-09T02:32:39;11.07;;;9.40;;
2055;SDS011;1033;52.560;13.374;2022-09-09T02:35:14;14.13;;;9.33;;
2055;SDS011;1033;52.560;13.374;2022-09-09T02:37:48;13.57;;;9.67;;
2055;SDS011;1033;52.560;13.374;2022-09-09T02:40:22;12.07;;;8.23;;
2055;SDS011;1033;52.560;13.374;2022-09-09T02:42:58;11.97;;;9.30;;
2055;SDS011;1033;52.560;13.374;2022-09-09T02:45:34;11.40;;;8.67;;
2055;SDS011;1033;52.560;13.374;2022-09-09T02:48:14;13.60;;;9.10;;
2055;SDS011;1033;52.560;13.374;2022-09-09T02:50:54;10.57;;;8.80;;
2055;SDS011;1033;52.560;13.374;2022-09-09T02:53:34;10.93;;;8.57;;
2055;SDS011;1033;52.560;13.374;2022-09-09T02:56:14;13.57;;;7.27;;
2055;SDS011;1033;52.560;13.374;2022-09-09T02:58:47;11.70;;;9.30;;
2055;SDS011;1033;52.560;13.374;2022-09-09T03:01:20;10.80;;;7.70;;
2055;SDS011;1033;52.560;13.374;2022-09-09T03:03:49;11.70;;;8.33;;
2055;SDS011;1033;52.560;13.374;2022-09-09T03:06:18;12.23;;;9.37;;
2055;SDS011;1033;52.560;13.374;2022-09-09T03:08:54;11.50;;;9.33;;
2055;SDS011;1033;52.560;13.374;2022-09-09T03:11:27;12.53;;;9.97;;
2055;SDS011;1033;52.560;13.374;2022-09-09T03:13:56;9.73;;;7.83;;
2055;SDS011;1033;52.560;13.374;2022-09-09T03:16:29;10.20;;;8.80;;
2055;SDS011;1033;52.560;13.374;2022-09-09T03:19:00;9.30;;;7.20;;
2055;SDS011;1033;52.560;13.374;2022-09-09T03:21:29;13.40;;;9.60;;
2055;SDS011;1033;52.560;13.374;2022-09-09T03:23:58;8.77;;;7.90;;
2055;SDS011;1033;52.560;13.374;2022-09-09T03:26:30;9.20;;;8.17;;
2055;SDS011;1033;52.560;13.374;2022-09-09T03:28:59;12.43;;;7.60;;
2055;SDS011;1033;52.560;13.374;2022-09-09T03:31:31;8.83;;;7.93;;
2055;SDS011;1033;52.560;13.374;2022-09-09T03:33:59;9.83;;;7.97;;
2055;SDS011;1033;52.560;13.374;2022-09-09T03:36:31;13.63;;;8.63;;
2055;SDS011;1033;52.560;13.374;2022-09-09T03:39:01;10.23;;;8.17;;
2055;SDS011;1033;52.560;13.374;2022-09-09T03:41:31;9.83;;;8.17;;
2055;SDS011;1033;52.560;13.374;2022-09-09T03:44:01;12.80;;;9.20;;
2055;SDS011;1033;52.560;13.374;2022-09-09T03:46:38;12.77;;;8.67;;
2055;SDS011;1033;52.560;13.374;2022-09-09T03:49:06;9.17;;;7.50;;
2055;SDS011;1033;52.560;13.374;2022-09-09T03:51:36;12.50;;;8.50;;
2055;SDS011;1033;52.560;13.374;2022-09-09T03:54:05;10.70;;;8.13;;
2055;SDS011;1033;52.560;13.374;2022-09-09T03:56:37;10.50;;;8.43;;
2055;SDS011;1033;52.560;13.374;2022-09-09T03:59:10;10.50;;;8.50;;
2055;SDS011;1033;52.560;13.374;2022-09-09T04:01:43;11.80;;;8.40;;
2055;SDS011;1033;52.560;13.374;2022-09-09T04:04:13;10.53;;;8.30;;
2055;SDS011;1033;52.560;13.374;2022-09-09T04:06:42;11.50;;;7.90;;
2055;SDS011;1033;52.560;13.374;2022-09-09T04:09:11;11.50;;;8.53;;
2055;SDS011;1033;52.560;13.374;2022-09-09T04:11:41;12.00;;;7.70;;
2055;SDS011;1033;52.560;13.374;2022-09-09T04:14:10;8.73;;;7.80;;
2055;SDS011;1033;52.560;13.374;2022-09-09T04:16:39;8.70;;;7.40;;
2055;SDS011;1033;52.560;13.374;2022-09-09T04:19:13;9.23;;;7.50;;
2055;SDS011;1033;52.560;13.374;2022-09-09T04:21:43;15.83;;;8.73;;
2055;SDS011;1033;52.560;13.374;2022-09-09T04:24:11;9.13;;;8.23;;
2055;SDS011;1033;52.560;13.374;2022-09-09T04:26:42;10.33;;;7.60;;
2055;SDS011;1033;52.560;13.374;2022-09-09T04:29:12;10.33;;;9.30;;
2055;SDS011;1033;52.560;13.374;2022-09-09T04:31:40;9.17;;;8.27;;
2055;SDS011;1033;52.560;13.374;2022-09-09T04:34:09;9.33;;;8.00;;
2055;SDS011;1033;52.560;13.374;2022-09-09T04:36:40;11.80;;;7.73;;
2055;SDS011;1033;52.560;13.374;2022-09-09T04:39:09;7.33;;;6.57;;
2055;SDS011;1033;52.560;13.374;2022-09-09T04:41:37;9.37;;;7.47;;
2055;SDS011;1033;52.560;13.374;2022-09-09T04:44:08;8.20;;;5.83;;
2055;SDS011;1033;52.560;13.374;2022-09-09T04:46:37;11.50;;;7.43;;
2055;SDS011;1033;52.560;13.374;2022-09-09T04:49:08;6.97;;;5.90;;
2055;SDS011;1033;52.560;13.374;2022-09-09T04:51:43;9.10;;;7.87;;
2055;SDS011;1033;52.560;13.374;2022-09-09T04:54:12;6.67;;;5.93;;
2055;SDS011;1033;52.560;13.374;2022-09-09T04:56:43;9.83;;;7.43;;
2055;SDS011;1033;52.560;13.374;2022-09-09T04:59:12;9.67;;;7.30;;
2055;SDS011;1033;52.560;13.374;2022-09-09T05:01:45;9.30;;;7.43;;
2055;SDS011;1033;52.560;13.374;2022-09-09T05:04:14;7.20;;;6.47;;
2055;SDS011;1033;52.560;13.374;2022-09-09T05:06:44;9.13;;;7.83;;
2055;SDS011;1033;52.560;13.374;2022-09-09T05:09:13;12.20;;;7.87;;
2055;SDS011;1033;52.560;13.374;2022-09-09T05:11:43;11.17;;;6.93;;
2055;SDS011;1033;52.560;13.374;2022-09-09T05:14:19;11.03;;;6.73;;
2055;SDS011;1033;52.560;13.374;2022-09-09T05:16:49;6.97;;;6.27;;
2055;SDS011;1033;52.560;13.374;2022-09-09T05:19:18;9.07;;;6.30;;
2055;SDS011;1033;52.560;13.374;2022-09-09T05:21:49;6.33;;;5.60;;
2055;SDS011;1033;52.560;13.374;2022-09-09T05:24:23;5.80;;;4.50;;
2055;SDS011;1033;52.560;13.374;2022-09-09T05:26:54;7.70;;;6.30;;
2055;SDS011;1033;52.560;13.374;2022-09-09T05:29:24;12.47;;;5.93;;
2055;SDS011;1033;52.560;13.374;2022-09-09T05:31:55;7.83;;;6.47;;
2055;SDS011;1033;52.560;13.374;2022-09-09T05:34:24;11.67;;;6.33;;
2055;SDS011;1033;52.560;13.374;2022-09-09T05:36:54;9.10;;;5.57;;
2055;SDS011;1033;52.560;13.374;2022-09-09T05:39:25;8.47;;;6.33;;
2055;SDS011;1033;52.560;13.374;2022-09-09T05:41:54;7.50;;;6.10;;
2055;SDS011;1033;52.560;13.374;2022-09-09T05:44:23;5.70;;;5.10;;
2055;SDS011;1033;52.560;13.374;2022-09-09T05:46:54;7.77;;;6.33;;
2055;SDS011;1033;52.560;13.374;2022-09-09T05:49:24;13.00;;;4.67;;
2055;SDS011;1033;52.560;13.374;2022-09-09T05:51:54;6.07;;;5.00;;
2055;SDS011;1033;52.560;13.374;2022-09-09T05:54:23;10.13;;;6.87;;
2055;SDS011;1033;52.560;13.374;2022-09-09T05:56:54;4.37;;;3.97;;
2055;SDS011;1033;52.560;13.374;2022-09-09T05:59:22;6.67;;;5.27;;
2055;SDS011;1033;52.560;13.374;2022-09-09T06:01:54;8.60;;;4.77;;
2055;SDS011;1033;52.560;13.374;2022-09-09T06:04:29;5.60;;;5.10;;
2055;SDS011;1033;52.560;13.374;2022-09-09T06:07:00;5.47;;;4.53;;
2055;SDS011;1033;52.560;13.374;2022-09-09T06:09:29;10.43;;;4.40;;
2055;SDS011;1033;52.560;13.374;2022-09-09T06:13:11;5.93;;;4.50;;
2055;SDS011;1033;52.560;13.374;2022-09-09T06:15:48;5.67;;;4.93;;
2055;SDS011;1033;52.560;13.374;2022-09-09T06:18:18;9.30;;;5.17;;
2055;SDS011;1033;52.560;13.374;2022-09-09T06:20:53;10.13;;;4.77;;
2055;SDS011;1033;52.560;13.374;2022-09-09T06:23:25;4.37;;;3.97;;
2055;SDS011;1033;52.560;13.374;2022-09-09T06:26:02;8.30;;;5.40;;
2055;SDS011;1033;52.560;13.374;2022-09-09T06:28:34;6.20;;;3.93;;
2055;SDS011;1033;52.560;13.374;2022-09-09T06:31:04;5.00;;;4.03;;
2055;SDS011;1033;52.560;13.374;2022-09-09T06:33:37;12.70;;;5.47;;
2055;SDS011;1033;52.560;13.374;2022-09-09T06:36:10;5.27;;;4.30;;
2055;SDS011;1033;52.560;13.374;2022-09-09T06:38:43;8.80;;;3.90;;
2055;SDS011;1033;52.560;13.374;2022-09-09T06:41:13;7.37;;;4.77;;
2055;SDS011;1033;52.560;13.374;2022-09-09T06:43:45;5.03;;;3.77;;
2055;SDS011;1033;52.560;13.374;2022-09-09T06:46:16;6.70;;;4.07;;
2055;SDS011;1033;52.560;13.374;2022-09-09T06:48:49;3.93;;;3.50;;
2055;SDS011;1033;52.560;13.374;2022-09-09T06:51:18;5.60;;;4.30;;
2055;SDS011;1033;52.560;13.374;2022-09-09T06:53:51;4.10;;;3.67;;
2055;SDS011;1033;52.560;13.374;2022-09-09T06:56:24;7.50;;;4.93;;
2055;SDS011;1033;52.560;13.374;2022-09-09T06:58:56;7.20;;;4.27;;
2055;SDS011;1033;52.560;13.374;2022-09-09T07:01:29;6.33;;;4.00;;
2055;SDS011;1033;52.560;13.374;2022-09-09T07:04:04;5.60;;;3.63;;
2055;SDS011;1033;52.560;13.374;2022-09-09T07:06:36;10.17;;;3.43;;
2055;SDS011;1033;52.560;13.374;2022-09-09T07:09:10;6.33;;;4.50;;
2055;SDS011;1033;52.560;13.374;2022-09-09T07:11:44;3.50;;;3.20;;
2055;SDS011;1033;52.560;13.374;2022-09-09T07:14:18;6.27;;;5.10;;
2055;SDS011;1033;52.560;13.374;2022-09-09T07:16:54;9.13;;;3.40;;
2055;SDS011;1033;52.560;13.374;2022-09-09T07:19:28;5.87;;;3.13;;
2055;SDS011;1033;52.560;13.374;2022-09-09T07:21:57;5.27;;;4.10;;
2055;SDS011;1033;52.560;13.374;2022-09-09T07:24:27;4.20;;;3.80;;
2055;SDS011;1033;52.560;13.374;2022-09-09T07:26:57;5.30;;;3.57;;
2055;SDS011;1033;52.560;13.374;2022-09-09T07:29:26;4.50;;;3.90;;
2055;SDS011;1033;52.560;13.374;2022-09-09T07:31:55;5.50;;;3.20;;
2055;SDS011;1033;52.560;13.374;2022-09-09T07:34:30;8.30;;;3.47;;
2055;SDS011;1033;52.560;13.374;2022-09-09T07:37:01;5.60;;;3.70;;
2055;SDS011;1033;52.560;13.374;2022-09-09T07:39:32;4.80;;;3.10;;
2055;SDS011;1033;52.560;13.374;2022-09-09T07:42:01;6.60;;;3.23;;
2055;SDS011;1033;52.560;13.374;2022-09-09T07:44:31;4.97;;;3.33;;
2055;SDS011;1033;52.560;13.374;2022-09-09T07:47:11;8.17;;;3.30;;
2055;SDS011;1033;52.560;13.374;2022-09-09T07:49:45;3.13;;;2.83;;
2055;SDS011;1033;52.560;13.374;2022-09-09T07:52:21;7.80;;;3.60;;
2055;SDS011;1033;52.560;13.374;2022-09-09T07:54:55;4.87;;;2.70;;
2055;SDS011;1033;52.560;13.374;2022-09-09T07:57:27;6.33;;;3.60;;
2055;SDS011;1033;52.560;13.374;2022-09-09T07:59:57;4.67;;;2.33;;
2055;SDS011;1033;52.560;13.374;2022-09-09T08:02:26;3.50;;;2.70;;
2055;SDS011;1033;52.560;13.374;2022-09-09T08:04:56;4.30;;;2.30;;
2055;SDS011;1033;52.560;13.374;2022-09-09T08:07:25;8.00;;;2.40;;
2055;SDS011;1033;52.560;13.374;2022-09-09T08:09:54;3.67;;;2.73;;
2055;SDS011;1033;52.560;13.374;2022-09-09T08:12:28;5.43;;;4.50;;
2055;SDS011;1033;52.560;13.374;2022-09-09T08:14:57;3.43;;;2.90;;
2055;SDS011;1033;52.560;13.374;2022-09-09T08:17:29;4.97;;;2.20;;
2055;SDS011;1033;52.560;13.374;2022-09-09T08:20:02;6.50;;;3.53;;
2055;SDS011;1033;52.560;13.374;2022-09-09T08:22:33;3.70;;;2.00;;
2055;SDS011;1033;52.560;13.374;2022-09-09T08:25:06;2.97;;;2.67;;
2055;SDS011;1033;52.560;13.374;2022-09-09T08:27:38;2.60;;;2.20;;
2055;SDS011;1033;52.560;13.374;2022-09-09T08:30:07;4.33;;;2.43;;
2055;SDS011;1033;52.560;13.374;2022-09-09T08:32:39;5.73;;;3.43;;
2055;SDS011;1033;52.560;13.374;2022-09-09T08:35:12;4.07;;;2.03;;
2055;SDS011;1033;52.560;13.374;2022-09-09T08:37:41;7.10;;;2.27;;
2055;SDS011;1033;52.560;13.374;2022-09-09T08:40:12;2.33;;;1.73;;
2055;SDS011;1033;52.560;13.374;2022-09-09T08:42:57;4.47;;;2.10;;
2055;SDS011;1033;52.560;13.374;2022-09-09T08:45:31;1.90;;;1.70;;
2055;SDS011;1033;52.560;13.374;2022-09-09T08:48:13;2.87;;;2.37;;
2055;SDS011;1033;52.560;13.374;2022-09-09T08:51:08;3.83;;;1.70;;
2055;SDS011;1033;52.560;13.374;2022-09-09T08:53:40;4.00;;;1.73;;
2055;SDS011;1033;52.560;13.374;2022-09-09T08:56:16;5.30;;;2.73;;
2055;SDS011;1033;52.560;13.374;2022-09-09T08:58:55;6.40;;;2.43;;
2055;SDS011;1033;52.560;13.374;2022-09-09T09:01:41;5.87;;;2.40;;
2055;SDS011;1033;52.560;13.374;2022-09-09T09:04:50;3.07;;;1.57;;
2055;SDS011;1033;52.560;13.374;2022-09-09T09:07:44;2.10;;;1.90;;
2055;SDS011;1033;52.560;13.374;2022-09-09T09:10:37;5.30;;;2.70;;
2055;SDS011;1033;52.560;13.374;2022-09-09T09:13:21;3.30;;;2.00;;
2055;SDS011;1033;52.560;13.374;2022-09-09T09:16:02;8.93;;;2.13;;
2055;SDS011;1033;52.560;13.374;2022-09-09T09:18:45;5.57;;;2.17;;
2055;SDS011;1033;52.560;13.374;2022-09-09T09:21:16;2.57;;;1.80;;
2055;SDS011;1033;52.560;13.374;2022-09-09T09:23:54;9.60;;;2.80;;
2055;SDS011;1033;52.560;13.374;2022-09-09T09:26:30;4.17;;;2.30;;
2055;SDS011;1033;52.560;13.374;2022-09-09T09:29:09;3.90;;;2.33;;
2055;SDS011;1033;52.560;13.374;2022-09-09T09:31:42;2.93;;;2.17;;
2055;SDS011;1033;52.560;13.374;2022-09-09T09:34:15;2.50;;;1.70;;
2055;SDS011;1033;52.560;13.374;2022-09-09T09:36:46;8.10;;;3.17;;
2055;SDS011;1033;52.560;13.374;2022-09-09T09:39:27;2.63;;;1.90;;
2055;SDS011;1033;52.560;13.374;2022-09-09T09:42:22;4.50;;;1.73;;
2055;SDS011;1033;52.560;13.374;2022-09-09T09:45:34;7.60;;;2.60;;
2055;SDS011;1033;52.560;13.374;2022-09-09T09:48:32;5.20;;;1.90;;
2055;SDS011;1033;52.560;13.374;2022-09-09T09:51:02;3.43;;;2.00;;
2055;SDS011;1033;52.560;13.374;2022-09-09T09:53:39;6.90;;;2.17;;
2055;SDS011;1033;52.560;13.374;2022-09-09T09:56:11;4.37;;;2.30;;
2055;SDS011;1033;52.560;13.374;2022-09-09T09:58:48;4.70;;;2.17;;
2055;SDS011;1033;52.560;13.374;2022-09-09T10:01:28;6.03;;;2.40;;
2055;SDS011;1033;52.560;13.374;2022-09-09T10:04:13;3.60;;;1.90;;
2055;SDS011;1033;52.560;13.374;2022-09-09T10:06:49;8.00;;;2.47;;
2055;SDS011;1033;52.560;13.374;2022-09-09T10:09:21;4.23;;;2.20;;
2055;SDS011;1033;52.560;13.374;2022-09-09T10:11:55;16.70;;;9.80;;
2055;SDS011;1033;52.560;13.374;2022-09-09T10:14:35;5.23;;;1.60;;
2055;SDS011;1033;52.560;13.374;2022-09-09T10:17:21;6.23;;;1.97;;
2055;SDS011;1033;52.560;13.374;2022-09-09T10:20:13;4.53;;;2.30;;
2055;SDS011;1033;52.560;13.374;2022-09-09T10:23:03;5.23;;;2.40;;
2055;SDS011;1033;52.560;13.374;2022-09-09T10:25:52;3.03;;;1.50;;
2055;SDS011;1033;52.560;13.374;2022-09-09T10:32:04;3.03;;;1.90;;
2055;SDS011;1033;52.560;13.374;2022-09-09T10:35:01;16.67;;;13.53;;
2055;SDS011;1033;52.560;13.374;2022-09-09T10:43:53;4.70;;;2.43;;
2055;SDS011;1033;52.560;13.374;2022-09-09T10:46:46;3.70;;;2.00;;
2055;SDS011;1033;52.560;13.374;2022-09-09T10:49:43;4.17;;;1.70;;
2055;SDS011;1033;52.560;13.374;2022-09-09T10:52:36;4.20;;;1.83;;
2055;SDS011;1033;52.560;13.374;2022-09-09T10:55:19;1.90;;;1.30;;
2055;SDS011;1033;52.560;13.374;2022-09-09T10:57:55;4.70;;;1.30;;
2055;SDS011;1033;52.560;13.374;2022-09-09T11:00:31;2.80;;;1.50;;
2055;SDS011;1033;52.560;13.374;2022-09-09T11:03:11;8.00;;;1.90;;
2055;SDS011;1033;52.560;13.374;2022-09-09T11:05:51;1.80;;;1.50;;
2055;SDS011;1033;52.560;13.374;2022-09-09T11:08:26;4.30;;;1.33;;
2055;SDS011;1033;52.560;13.374;2022-09-09T11:11:01;2.67;;;1.53;;
2055;SDS011;1033;52.560;13.374;2022-09-09T11:13:38;3.97;;;1.30;;
2055;SDS011;1033;52.560;13.374;2022-09-09T11:16:21;3.00;;;1.00;;
2055;SDS011;1033;52.560;13.374;2022-09-09T11:18:58;2.10;;;1.60;;
2055;SDS011;1033;52.560;13.374;2022-09-09T11:21:40;3.20;;;1.70;;
2055;SDS011;1033;52.560;13.374;2022-09-09T11:24:15;2.60;;;1.43;;
2055;SDS011;1033;52.560;13.374;2022-09-09T11:26:52;6.10;;;1.73;;
2055;SDS011;1033;52.560;13.374;2022-09-09T11:33:24;2.47;;;1.90;;
2055;SDS011;1033;52.560;13.374;2022-09-09T11:36:24;6.50;;;4.03;;
2055;SDS011;1033;52.560;13.374;2022-09-09T11:39:22;5.17;;;1.60;;
2055;SDS011;1033;52.560;13.374;2022-09-09T11:42:14;9.43;;;1.40;;
2055;SDS011;1033;52.560;13.374;2022-09-09T11:44:46;5.17;;;1.97;;
2055;SDS011;1033;52.560;13.374;2022-09-09T11:47:16;6.73;;;4.07;;
2055;SDS011;1033;52.560;13.374;2022-09-09T11:50:06;4.10;;;1.90;;
2055;SDS011;1033;52.560;13.374;2022-09-09T11:52:42;2.80;;;1.90;;
2055;SDS011;1033;52.560;13.374;2022-09-09T11:55:24;2.77;;;1.63;;
2055;SDS011;1033;52.560;13.374;2022-09-09T11:57:57;3.13;;;1.87;;
2055;SDS011;1033;52.560;13.374;2022-09-09T12:00:30;3.17;;;1.50;;
2055;SDS011;1033;52.560;13.374;2022-09-09T12:03:05;2.83;;;0.90;;
2055;SDS011;1033;52.560;13.374;2022-09-09T12:05:56;3.57;;;1.43;;
2055;SDS011;1033;52.560;13.374;2022-09-09T12:08:29;9.03;;;1.23;;
2055;SDS011;1033;52.560;13.374;2022-09-09T12:10:59;3.30;;;1.93;;
2055;SDS011;1033;52.560;13.374;2022-09-09T12:13:29;2.40;;;1.33;;
2055;SDS011;1033;52.560;13.374;2022-09-09T12:15:59;4.30;;;1.17;;
2055;SDS011;1033;52.560;13.374;2022-09-09T12:18:32;2.27;;;1.00;;
2055;SDS011;1033;52.560;13.374;2022-09-09T12:21:06;1.97;;;0.90;;
2055;SDS011;1033;52.560;13.374;2022-09-09T12:23:50;3.53;;;1.33;;
2055;SDS011;1033;52.560;13.374;2022-09-09T12:26:27;4.00;;;3.37;;
2055;SDS011;1033;52.560;13.374;2022-09-09T12:29:13;8.90;;;5.13;;
2055;SDS011;1033;52.560;13.374;2022-09-09T12:31:56;2.47;;;1.30;;
2055;SDS011;1033;52.560;13.374;2022-09-09T12:34:35;2.33;;;1.57;;
2055;SDS011;1033;52.560;13.374;2022-09-09T12:37:13;3.00;;;1.83;;
2055;SDS011;1033;52.560;13.374;2022-09-09T12:39:53;4.17;;;1.43;;
2055;SDS011;1033;52.560;13.374;2022-09-09T12:42:25;3.50;;;1.93;;
2055;SDS011;1033;52.560;13.374;2022-09-09T12:44:56;2.60;;;1.40;;
2055;SDS011;1033;52.560;13.374;2022-09-09T12:47:30;4.53;;;1.47;;
2055;SDS011;1033;52.560;13.374;2022-09-09T12:50:19;2.40;;;1.60;;
2055;SDS011;1033;52.560;13.374;2022-09-09T12:52:52;6.73;;;1.83;;
2055;SDS011;1033;52.560;13.374;2022-09-09T12:55:30;5.53;;;1.83;;
2055;SDS011;1033;52.560;13.374;2022-09-09T12:58:03;2.70;;;1.50;;
2055;SDS011;1033;52.560;13.374;2022-09-09T13:00:34;3.40;;;1.30;;
2055;SDS011;1033;52.560;13.374;2022-09-09T13:03:14;2.43;;;1.37;;
2055;SDS011;1033;52.560;13.374;2022-09-09T13:05:47;2.80;;;1.27;;
2055;SDS011;1033;52.560;13.374;2022-09-09T13:08:19;4.43;;;2.63;;
2055;SDS011;1033;52.560;13.374;2022-09-09T13:10:50;2.23;;;1.30;;
2055;SDS011;1033;52.560;13.374;2022-09-09T13:13:29;5.47;;;2.30;;
2055;SDS011;1033;52.560;13.374;2022-09-09T13:16:04;2.97;;;1.30;;
2055;SDS011;1033;52.560;13.374;2022-09-09T13:18:46;6.63;;;3.87;;
2055;SDS011;1033;52.560;13.374;2022-09-09T13:21:16;6.80;;;2.73;;
2055;SDS011;1033;52.560;13.374;2022-09-09T13:23:48;2.90;;;1.30;;
2055;SDS011;1033;52.560;13.374;2022-09-09T13:26:21;2.27;;;1.50;;
2055;SDS011;1033;52.560;13.374;2022-09-09T13:28:53;5.67;;;2.00;;
2055;SDS011;1033;52.560;13.374;2022-09-09T13:31:36;7.63;;;5.40;;
2055;SDS011;1033;52.560;13.374;2022-09-09T13:34:10;5.77;;;3.23;;
2055;SDS011;1033;52.560;13.374;2022-09-09T13:36:41;5.43;;;3.73;;
2055;SDS011;1033;52.560;13.374;2022-09-09T13:39:16;2.43;;;1.07;;
2055;SDS011;1033;52.560;13.374;2022-09-09T13:41:47;3.30;;;1.97;;
2055;SDS011;1033;52.560;13.374;2022-09-09T13:44:17;4.30;;;3.77;;
2055;SDS011;1033;52.560;13.374;2022-09-09T13:47:01;6.10;;;4.50;;
2055;SDS011;1033;52.560;13.374;2022-09-09T13:49:36;4.10;;;1.80;;
2055;SDS011;1033;52.560;13.374;2022-09-09T13:52:08;3.20;;;1.80;;
2055;SDS011;1033;52.560;13.374;2022-09-09T13:54:40;3.73;;;1.77;;
2055;SDS011;1033;52.560;13.374;2022-09-09T13:59:53;3.10;;;1.43;;
2055;SDS011;1033;52.560;13.374;2022-09-09T14:02:31;3.83;;;1.30;;
2055;SDS011;1033;52.560;13.374;2022-09-09T14:05:01;3.23;;;1.30;;
2055;SDS011;1033;52.560;13.374;2022-09-09T14:07:31;2.80;;;1.07;;
2055;SDS011;1033;52.560;13.374;2022-09-09T14:10:00;6.03;;;1.83;;
2055;SDS011;1033;52.560;13.374;2022-09-09T14:12:31;2.37;;;1.17;;
2055;SDS011;1033;52.560;13.374;2022-09-09T14:14:59;3.17;;;1.37;;
2055;SDS011;1033;52.560;13.374;2022-09-09T14:17:29;2.20;;;1.07;;
2055;SDS011;1033;52.560;13.374;2022-09-09T14:19:58;3.33;;;1.80;;
2055;SDS011;1033;52.560;13.374;2022-09-09T14:22:27;2.20;;;1.00;;
2055;SDS011;1033;52.560;13.374;2022-09-09T14:24:56;4.37;;;1.93;;
2055;SDS011;1033;52.560;13.374;2022-09-09T14:27:26;5.80;;;4.77;;
2055;SDS011;1033;52.560;13.374;2022-09-09T14:29:58;6.90;;;4.40;;
2055;SDS011;1033;52.560;13.374;2022-09-09T14:32:27;2.00;;;1.40;;
2055;SDS011;1033;52.560;13.374;2022-09-09T14:34:57;3.40;;;2.20;;
2055;SDS011;1033;52.560;13.374;2022-09-09T14:37:26;5.07;;;4.57;;
2055;SDS011;1033;52.560;13.374;2022-09-09T14:39:57;3.13;;;1.47;;
2055;SDS011;1033;52.560;13.374;2022-09-09T14:42:26;5.93;;;3.60;;
2055;SDS011;1033;52.560;13.374;2022-09-09T14:44:58;3.07;;;1.30;;
2055;SDS011;1033;52.560;13.374;2022-09-09T14:47:27;3.93;;;1.80;;
2055;SDS011;1033;52.560;13.374;2022-09-09T14:49:56;5.07;;;2.37;;
2055;SDS011;1033;52.560;13.374;2022-09-09T14:52:27;2.20;;;1.40;;
2055;SDS011;1033;52.560;13.374;2022-09-09T14:54:58;2.07;;;1.00;;
2055;SDS011;1033;52.560;13.374;2022-09-09T14:57:26;2.77;;;1.07;;
2055;SDS011;1033;52.560;13.374;2022-09-09T14:59:55;2.20;;;1.23;;
2055;SDS011;1033;52.560;13.374;2022-09-09T15:02:26;4.10;;;1.70;;
2055;SDS011;1033;52.560;13.374;2022-09-09T15:04:56;2.10;;;1.37;;
2055;SDS011;1033;52.560;13.374;2022-09-09T15:07:25;4.27;;;1.80;;
2055;SDS011;1033;52.560;13.374;2022-09-09T15:09:54;3.50;;;2.17;;
2055;SDS011;1033;52.560;13.374;2022-09-09T15:12:23;5.10;;;3.03;;
2055;SDS011;1033;52.560;13.374;2022-09-09T15:14:54;4.87;;;2.20;;
2055;SDS011;1033;52.560;13.374;2022-09-09T15:17:25;7.43;;;2.47;;
2055;SDS011;1033;52.560;13.374;2022-09-09T15:19:54;3.50;;;1.83;;
2055;SDS011;1033;52.560;13.374;2022-09-09T15:22:23;4.53;;;1.70;;
2055;SDS011;1033;52.560;13.374;2022-09-09T15:24:52;8.60;;;4.90;;
2055;SDS011;1033;52.560;13.374;2022-09-09T15:27:21;7.13;;;3.43;;
2055;SDS011;1033;52.560;13.374;2022-09-09T15:29:50;3.13;;;1.30;;
2055;SDS011;1033;52.560;13.374;2022-09-09T15:32:19;2.63;;;1.80;;
2055;SDS011;1033;52.560;13.374;2022-09-09T15:34:49;5.07;;;1.73;;
2055;SDS011;1033;52.560;13.374;2022-09-09T15:37:19;5.70;;;1.63;;
2055;SDS011;1033;52.560;13.374;2022-09-09T15:39:48;3.63;;;1.97;;
2055;SDS011;1033;52.560;13.374;2022-09-09T15:42:18;2.33;;;1.60;;
2055;SDS011;1033;52.560;13.374;2022-09-09T15:44:47;5.20;;;1.67;;
2055;SDS011;1033;52.560;13.374;2022-09-09T15:47:16;7.80;;;6.03;;
2055;SDS011;1033;52.560;13.374;2022-09-09T15:49:45;6.20;;;2.87;;
2055;SDS011;1033;52.560;13.374;2022-09-09T15:52:15;14.97;;;9.77;;
2055;SDS011;1033;52.560;13.374;2022-09-09T15:54:45;2.37;;;1.70;;
2055;SDS011;1033;52.560;13.374;2022-09-09T15:57:14;4.00;;;1.80;;
2055;SDS011;1033;52.560;13.374;2022-09-09T15:59:43;4.47;;;3.90;;
2055;SDS011;1033;52.560;13.374;2022-09-09T16:02:12;12.67;;;7.30;;
2055;SDS011;1033;52.560;13.374;2022-09-09T16:04:42;6.93;;;2.67;;
2055;SDS011;1033;52.560;13.374;2022-09-09T16:07:11;4.80;;;2.00;;